Time;durP1;ratioP1;P1;durP2;ratioP2;P2;SDS_P1;SDS_P2;PMS_P1;PMS_P2;Temp;Humidity;BMP_temperature;BMP_pressure;BME280_temperature;BME280_humidity;BME280_pressure;Samples;Min_cycle;Max_cycle;Signal;HPM_P1;HPM_P2
2022/04/14 00:00:53;;;;;;;102.93;60.67;;;;;;;11.99;100.00;101920.16;7392017;19;20468;-54
2022/04/14 00:03:25;;;;;;;101.00;60.28;;;;;;;12.03;100.00;101915.66;7391340;19;20028;-60
2022/04/14 00:05:54;;;;;;;102.03;59.83;;;;;;;12.02;100.00;101913.94;7390178;19;20034;-59
2022/04/14 00:08:23;;;;;;;107.70;61.25;;;;;;;11.94;100.00;101914.19;7390922;19;20011;-60
2022/04/14 00:10:52;;;;;;;104.32;60.28;;;;;;;11.83;100.00;101908.41;7388600;19;20033;-58
2022/04/14 00:13:21;;;;;;;105.75;59.55;;;;;;;11.91;100.00;101907.25;7389116;19;20029;-60
2022/04/14 00:15:50;;;;;;;107.45;60.20;;;;;;;11.93;100.00;101913.34;7390463;19;20010;-60
2022/04/14 00:18:19;;;;;;;114.38;64.53;;;;;;;11.91;100.00;101909.03;7388930;19;20015;-59
2022/04/14 00:20:50;;;;;;;105.47;62.42;;;;;;;11.98;100.00;101912.31;7388056;19;20018;-60
2022/04/14 00:23:19;;;;;;;128.48;69.18;;;;;;;12.00;100.00;101908.75;7388986;19;20022;-60
2022/04/14 00:25:48;;;;;;;118.82;67.72;;;;;;;11.91;100.00;101901.13;7389069;19;20010;-60
2022/04/14 00:28:17;;;;;;;137.43;73.38;;;;;;;11.94;100.00;101906.31;7389541;19;20010;-60
2022/04/14 00:30:46;;;;;;;121.43;67.20;;;;;;;11.81;100.00;101894.47;7388586;19;20033;-60
2022/04/14 00:33:15;;;;;;;122.40;67.32;;;;;;;11.90;100.00;101899.41;7388780;19;20014;-59
2022/04/14 00:35:43;;;;;;;120.80;67.80;;;;;;;11.91;100.00;101901.13;7388641;19;20487;-59
2022/04/14 00:38:15;;;;;;;123.90;68.13;;;;;;;11.84;100.00;101897.84;7388466;19;20018;-61
2022/04/14 00:40:44;;;;;;;120.95;67.78;;;;;;;11.79;100.00;101891.88;7388111;19;20095;-59
2022/04/14 00:43:13;;;;;;;133.25;69.55;;;;;;;11.84;100.00;101887.34;7387897;19;20010;-58
2022/04/14 00:45:42;;;;;;;125.75;68.90;;;;;;;11.73;100.00;101892.94;7389300;19;20014;-59
2022/04/14 00:48:13;;;;;;;125.20;68.50;;;;;;;11.76;100.00;101899.84;7389408;19;20025;-59
2022/04/14 00:50:42;;;;;;;120.15;66.85;;;;;;;11.70;100.00;101898.28;7388661;19;20019;-60
2022/04/14 00:53:15;;;;;;;123.15;66.90;;;;;;;11.67;100.00;101898.38;7386045;19;20030;-60
2022/04/14 00:55:43;;;;;;;;;;;;;;;11.70;100.00;101903.53;7389896;19;20018;-60
2022/04/14 00:58:12;;;;;;;118.55;66.35;;;;;;;11.68;100.00;101894.84;7389124;19;20363;-58
2022/04/14 01:00:41;;;;;;;131.15;70.32;;;;;;;11.79;100.00;101897.13;7388953;19;20419;-59
2022/04/14 01:03:11;;;;;;;125.03;68.68;;;;;;;11.79;100.00;101886.63;7388459;19;20014;-60
2022/04/14 01:05:42;;;;;;;120.28;67.72;;;;;;;11.72;100.00;101892.97;7388695;19;20025;-59
2022/04/14 01:08:11;;;;;;;134.50;71.53;;;;;;;11.77;100.00;101889.28;7388779;19;20011;-60
2022/04/14 01:10:47;;;;;;;132.07;70.50;;;;;;;11.68;100.00;101886.97;7387160;19;20006;-60
2022/04/14 01:13:16;;;;;;;126.82;68.38;;;;;;;11.63;100.00;101885.41;7387366;19;20022;-58
2022/04/14 01:15:45;;;;;;;129.45;70.63;;;;;;;11.57;100.00;101879.41;7388644;19;20486;-59
2022/04/14 01:18:15;;;;;;;143.93;73.72;;;;;;;11.69;100.00;101885.19;7388068;19;20021;-60
2022/04/14 01:20:45;;;;;;;141.13;74.95;;;;;;;11.65;100.00;101886.19;7387625;19;20024;-59
2022/04/14 01:23:17;;;;;;;131.95;72.93;;;;;;;11.53;100.00;101883.06;7386875;19;20022;-60
2022/04/14 01:25:49;;;;;;;136.30;72.65;;;;;;;11.64;100.00;101884.50;7387999;19;20315;-60
2022/04/14 01:28:18;;;;;;;148.97;73.87;;;;;;;11.66;100.00;101887.94;7388415;19;20025;-60
2022/04/14 01:30:47;;;;;;;115.00;66.75;;;;;;;11.63;100.00;101888.88;7387499;19;20022;-57
2022/04/14 01:33:16;;;;;;;159.50;74.90;;;;;;;11.63;100.00;101883.63;7386308;19;20336;-59
2022/04/14 01:35:45;;;;;;;150.68;76.10;;;;;;;11.60;100.00;101887.22;7388242;19;20026;-59
2022/04/14 01:38:14;;;;;;;150.30;78.35;;;;;;;11.60;100.00;101883.72;7387853;19;20010;-56
2022/04/14 01:40:43;;;;;;;145.18;74.90;;;;;;;11.51;100.00;101884.03;7388847;19;20796;-59
2022/04/14 01:43:14;;;;;;;138.55;73.85;;;;;;;11.56;100.00;101885.59;7385704;19;20018;-60
2022/04/14 01:45:48;;;;;;;184.25;79.43;;;;;;;11.50;100.00;101885.78;7392878;19;20021;-56
2022/04/14 01:48:17;;;;;;;199.05;83.40;;;;;;;11.49;100.00;101880.56;7394863;19;20014;-58
2022/04/14 01:50:46;;;;;;;193.07;81.47;;;;;;;11.48;100.00;101886.75;7394101;19;20007;-58
2022/04/14 01:53:15;;;;;;;179.50;80.18;;;;;;;11.49;100.00;101886.69;7390963;19;20061;-58
2022/04/14 01:55:44;;;;;;;125.25;70.47;;;;;;;11.45;100.00;101898.19;7393411;19;20025;-57
2022/04/14 01:58:16;;;;;;;249.20;85.00;;;;;;;11.42;100.00;101898.28;7393018;19;20310;-59
2022/04/14 02:00:44;;;;;;;143.55;77.93;;;;;;;11.36;100.00;101893.22;7392724;19;20015;-57
2022/04/14 02:03:13;;;;;;;131.18;71.85;;;;;;;11.30;100.00;101894.25;7392388;19;20021;-59
2022/04/14 02:05:42;;;;;;;152.63;75.82;;;;;;;11.31;100.00;101897.75;7393382;19;20086;-59
2022/04/14 02:08:11;;;;;;;128.52;71.40;;;;;;;11.38;100.00;101897.50;7392131;19;20371;-60
2022/04/14 02:10:40;;;;;;;162.45;72.35;;;;;;;11.44;100.00;101901.72;7391541;19;20090;-61
2022/04/14 02:13:09;;;;;;;152.05;78.25;;;;;;;11.42;100.00;101900.91;7390852;19;20015;-53
2022/04/14 02:15:40;;;;;;;158.52;79.47;;;;;;;11.39;100.00;101903.63;7391823;19;20452;-54
2022/04/14 02:18:09;;;;;;;178.75;82.60;;;;;;;11.35;100.00;101905.50;7391980;19;20029;-59
2022/04/14 02:20:38;;;;;;;186.32;84.80;;;;;;;11.37;100.00;101908.06;7389202;19;20023;-60
2022/04/14 02:23:07;;;;;;;317.23;92.65;;;;;;;11.30;100.00;101910.00;7389922;19;20010;-61
2022/04/14 02:25:36;;;;;;;224.45;85.47;;;;;;;11.28;100.00;101911.81;7391992;19;20018;-61
2022/04/14 02:28:05;;;;;;;353.00;95.15;;;;;;;11.20;100.00;101906.81;7392199;19;20010;-60
2022/04/14 02:30:35;;;;;;;276.25;84.25;;;;;;;11.24;100.00;101915.44;7391275;19;20122;-61
2022/04/14 02:33:06;;;;;;;389.08;91.28;;;;;;;11.18;100.00;101918.25;7388780;19;20022;-60
2022/04/14 02:35:35;;;;;;;140.05;73.68;;;;;;;11.22;100.00;101918.09;7385338;19;20025;-62
2022/04/14 02:38:04;;;;;;;255.45;77.00;;;;;;;11.10;100.00;101918.44;7388600;19;20010;-60
2022/04/14 02:40:33;;;;;;;142.70;71.30;;;;;;;11.04;100.00;101923.88;7389189;19;20017;-57
2022/04/14 02:43:02;;;;;;;177.75;70.32;;;;;;;11.06;100.00;101924.69;7389428;19;20057;-58
2022/04/14 02:45:31;;;;;;;448.48;98.25;;;;;;;10.96;100.00;101924.13;7391763;19;20019;-58
2022/04/14 02:48:00;;;;;;;232.85;82.75;;;;;;;10.95;100.00;101914.50;7391280;19;20022;-58
2022/04/14 02:50:31;;;;;;;413.25;104.25;;;;;;;10.89;100.00;101920.78;7391142;19;20014;-56
2022/04/14 02:53:00;;;;;;;255.93;81.77;;;;;;;11.01;100.00;101918.72;7251834;19;2715214;-60
2022/04/14 02:55:29;;;;;;;272.60;79.20;;;;;;;10.92;100.00;101914.59;7393308;19;20015;-58
2022/04/14 02:57:58;;;;;;;228.98;81.45;;;;;;;10.87;100.00;101914.75;7394794;19;20305;-59
2022/04/14 03:00:27;;;;;;;289.05;80.90;;;;;;;10.95;100.00;101911.91;7391160;19;20034;-61
2022/04/14 03:02:56;;;;;;;403.27;93.47;;;;;;;10.80;100.00;101907.91;7392021;19;20018;-59
2022/04/14 03:05:24;;;;;;;298.15;87.45;;;;;;;10.87;100.00;101912.13;7398411;19;20014;-61
2022/04/14 03:07:56;;;;;;;233.30;74.93;;;;;;;10.76;100.00;101923.78;7396319;19;20014;-58
2022/04/14 03:10:25;;;;;;;181.10;73.03;;;;;;;10.76;100.00;101919.41;7395658;19;20014;-60
2022/04/14 03:12:54;;;;;;;262.33;73.22;;;;;;;10.78;100.00;101909.75;7395694;19;20104;-58
2022/04/14 03:15:23;;;;;;;338.83;87.72;;;;;;;10.65;100.00;101917.06;7396399;19;20011;-59
2022/04/14 03:17:53;;;;;;;155.02;72.07;;;;;;;10.69;100.00;101917.88;7395172;19;20404;-60
2022/04/14 03:20:22;;;;;;;288.23;88.53;;;;;;;10.64;100.00;101919.75;7393799;19;20015;-61
2022/04/14 03:22:51;;;;;;;398.48;99.07;;;;;;;10.54;100.00;101914.75;7395018;19;20021;-60
2022/04/14 03:25:22;;;;;;;247.73;88.55;;;;;;;10.57;100.00;101929.53;7393909;19;20014;-62
2022/04/14 03:27:51;;;;;;;147.02;74.07;;;;;;;10.67;100.00;101920.50;7394827;19;20037;-58
2022/04/14 03:30:20;;;;;;;275.17;89.80;;;;;;;10.60;100.00;101924.19;7395175;19;20018;-58
2022/04/14 03:32:49;;;;;;;176.48;71.00;;;;;;;10.71;100.00;101909.03;7394157;19;20027;-58
2022/04/14 03:35:18;;;;;;;230.30;87.32;;;;;;;10.59;100.00;101912.00;7394204;19;20026;-58
2022/04/14 03:37:47;;;;;;;124.50;70.80;;;;;;;10.60;100.00;101910.25;7396441;19;20070;-59
2022/04/14 03:40:16;;;;;;;213.35;74.55;;;;;;;10.65;100.00;101914.47;7393265;19;20025;-58
2022/04/14 03:42:47;;;;;;;298.73;83.07;;;;;;;10.52;100.00;101908.69;7393484;19;20337;-59
2022/04/14 03:45:17;;;;;;;178.82;74.43;;;;;;;10.64;100.00;101910.09;7396037;19;20034;-59
2022/04/14 03:47:46;;;;;;;189.07;75.20;;;;;;;10.64;100.00;101910.09;7395113;19;20024;-60
2022/04/14 03:50:15;;;;;;;144.65;68.80;;;;;;;10.63;100.00;101902.28;7393443;19;20352;-60
2022/04/14 03:52:44;;;;;;;154.40;71.03;;;;;;;10.54;100.00;101903.41;7391189;19;20027;-59
2022/04/14 03:55:12;;;;;;;224.07;67.40;;;;;;;10.46;100.00;101907.97;7392972;19;20018;-60
2022/04/14 03:57:41;;;;;;;197.48;72.65;;;;;;;10.37;100.00;101904.72;7394182;19;20349;-59
2022/04/14 04:00:14;;;;;;;340.88;90.43;;;;;;;10.34;100.00;101904.78;7393174;19;20018;-60
2022/04/14 04:02:43;;;;;;;365.73;94.72;;;;;;;10.25;100.00;101899.75;7395909;19;20022;-60
2022/04/14 04:05:12;;;;;;;310.48;93.65;;;;;;;10.25;100.00;101905.00;7396056;19;20022;-59
2022/04/14 04:07:41;;;;;;;303.98;94.45;;;;;;;10.28;100.00;101910.16;7394692;19;20025;-58
2022/04/14 04:10:10;;;;;;;188.98;76.05;;;;;;;10.29;100.00;101908.41;7394439;19;20010;-60
2022/04/14 04:12:39;;;;;;;158.27;76.65;;;;;;;10.37;100.00;101911.69;7394238;19;20018;-55
2022/04/14 04:15:11;;;;;;;304.40;91.38;;;;;;;10.39;100.00;101912.53;7396507;19;20034;-58
2022/04/14 04:17:44;;;;;;;276.80;88.13;;;;;;;10.38;100.00;101922.13;7394526;19;20328;-57
2022/04/14 04:20:14;;;;;;;254.98;88.82;;;;;;;10.39;100.00;101918.63;7392717;19;20022;-58
2022/04/14 04:22:43;;;;;;;178.15;73.38;;;;;;;10.37;100.00;101923.06;7392835;19;20340;-60
2022/04/14 04:25:12;;;;;;;122.70;67.18;;;;;;;10.43;100.00;101923.78;7395410;19;20021;-55
2022/04/14 04:27:41;;;;;;;290.52;82.00;;;;;;;10.36;100.00;101928.34;7394947;19;20014;-60
2022/04/14 04:30:11;;;;;;;325.90;84.78;;;;;;;10.36;100.00;101929.19;7393502;19;20017;-59
2022/04/14 04:32:43;;;;;;;191.85;72.68;;;;;;;10.32;100.00;101929.28;7393112;19;20030;-58
2022/04/14 04:35:12;;;;;;;244.80;74.57;;;;;;;10.29;100.00;101932.84;7393085;19;20015;-54
2022/04/14 04:37:42;;;;;;;312.38;82.53;;;;;;;10.30;100.00;101929.31;7394321;19;20017;-60
2022/04/14 04:40:12;;;;;;;139.23;66.53;;;;;;;10.25;100.00;101936.44;7394017;19;20014;-54
2022/04/14 04:42:41;;;;;;;211.63;76.45;;;;;;;10.16;100.00;101937.50;7393526;19;20026;-59
2022/04/14 04:45:10;;;;;;;354.58;85.38;;;;;;;10.19;100.00;101940.06;7392683;19;20317;-59
2022/04/14 04:47:39;;;;;;;148.07;68.03;;;;;;;10.21;100.00;101937.38;7391528;19;20011;-60
2022/04/14 04:50:11;;;;;;;286.58;80.25;;;;;;;10.26;100.00;101946.00;7388961;19;20022;-61
2022/04/14 04:52:40;;;;;;;296.63;81.93;;;;;;;10.31;100.00;101949.34;7386483;19;20364;-60
2022/04/14 04:55:10;;;;;;;226.23;74.43;;;;;;;10.24;100.00;101950.41;7390084;19;20254;-59
2022/04/14 04:57:39;;;;;;;355.52;88.32;;;;;;;10.28;100.00;101949.44;7392120;19;20452;-60
2022/04/14 05:00:09;;;;;;;113.35;61.72;;;;;;;10.27;100.00;101954.72;7389392;19;20034;-61
2022/04/14 05:02:40;;;;;;;332.00;82.93;;;;;;;10.16;100.00;101958.47;7394472;19;20539;-61
2022/04/14 05:05:11;;;;;;;154.05;65.85;;;;;;;10.13;100.00;101953.31;7390587;19;20018;-61
2022/04/14 05:07:40;;;;;;;244.55;78.38;;;;;;;10.06;100.00;101959.59;7390407;19;20026;-61
2022/04/14 05:10:10;;;;;;;188.68;70.20;;;;;;;10.11;100.00;101960.31;7389938;19;20026;-59
2022/04/14 05:12:39;;;;;;;219.02;64.25;;;;;;;10.17;100.00;101954.97;7389692;19;20010;-60
2022/04/14 05:15:09;;;;;;;228.18;75.85;;;;;;;10.07;100.00;101956.06;7390946;19;20085;-61
2022/04/14 05:17:38;;;;;;;183.05;71.32;;;;;;;10.00;100.00;101962.34;7390137;19;20015;-62
2022/04/14 05:20:08;;;;;;;300.05;76.22;;;;;;;9.94;100.00;101968.56;7389235;19;20021;-61
2022/04/14 05:22:39;;;;;;;132.50;62.70;;;;;;;10.00;100.00;101965.84;7394602;19;20021;-62
2022/04/14 05:25:09;;;;;;;207.27;67.32;;;;;;;10.00;100.00;101960.59;7397153;19;20011;-62
2022/04/14 05:27:39;;;;;;;115.05;60.85;;;;;;;9.97;100.00;101967.66;7399419;19;20011;-62
2022/04/14 05:30:10;;;;;;;244.20;79.78;;;;;;;9.91;100.00;101973.88;7396571;19;20015;-62
2022/04/14 05:32:40;;;;;;;171.57;70.18;;;;;;;9.90;100.00;101964.34;7394778;19;20021;-62
2022/04/14 05:35:11;;;;;;;206.65;77.80;;;;;;;9.92;100.00;101965.13;7395993;19;20015;-62
2022/04/14 05:37:42;;;;;;;192.60;70.60;;;;;;;9.93;100.00;101964.25;7396950;19;20015;-60
2022/04/14 05:40:12;;;;;;;206.10;71.80;;;;;;;9.84;100.00;101969.69;7394987;19;20010;-59
2022/04/14 05:42:45;;;;;;;185.63;71.55;;;;;;;9.91;100.00;101963.41;7396056;19;20089;-61
2022/04/14 05:45:15;;;;;;;182.95;71.32;;;;;;;9.99;100.00;101966.72;7396744;19;20107;-60
2022/04/14 05:47:44;;;;;;;153.95;70.53;;;;;;;9.93;100.00;101986.94;7396559;19;20468;-60
2022/04/14 05:50:13;;;;;;;201.00;77.30;;;;;;;9.96;100.00;101977.28;7395329;19;20002;-59
2022/04/14 05:52:44;;;;;;;154.05;67.18;;;;;;;9.98;100.00;101978.09;7394858;19;20042;-59
2022/04/14 05:55:13;;;;;;;135.68;61.30;;;;;;;9.95;100.00;101993.88;7395773;19;20011;-61
2022/04/14 05:57:42;;;;;;;187.05;60.30;;;;;;;9.85;100.00;101990.59;7391318;19;20018;-58
2022/04/14 06:00:13;;;;;;;101.68;58.53;;;;;;;9.99;100.00;101986.81;7391301;19;20029;-58
2022/04/14 06:02:42;;;;;;;151.63;61.70;;;;;;;10.07;100.00;101989.25;7395544;19;20014;-62
2022/04/14 06:05:12;;;;;;;207.77;74.72;;;;;;;9.96;100.00;102000.00;7398393;19;20427;-61
2022/04/14 06:07:43;;;;;;;164.15;70.40;;;;;;;9.98;100.00;102004.25;7399574;19;20010;-57
2022/04/14 06:10:12;;;;;;;207.07;79.13;;;;;;;9.94;100.00;102007.00;7395838;19;20371;-61
2022/04/14 06:12:41;;;;;;;217.20;80.18;;;;;;;9.89;100.00;102007.09;7395034;19;20025;-62
2022/04/14 06:15:26;;;;;;;92.78;59.75;;;;;;;9.93;100.00;102006.16;7397203;19;20019;-63
2022/04/14 06:17:55;;;;;;;115.03;57.60;;;;;;;9.95;100.00;102008.72;7397018;19;20018;-60
2022/04/14 06:20:24;;;;;;;154.60;59.33;;;;;;;10.02;100.00;102007.69;7394844;19;20022;-56
2022/04/14 06:22:58;;;;;;;192.77;69.80;;;;;;;9.98;100.00;102014.75;7395198;19;20019;-60
2022/04/14 06:25:27;;;;;;;103.28;56.55;;;;;;;10.02;100.00;102010.31;7398336;19;20021;-59
2022/04/14 06:27:57;;;;;;;133.35;61.42;;;;;;;9.87;100.00;102004.53;7396566;19;20022;-60
2022/04/14 06:30:26;;;;;;;144.30;68.60;;;;;;;9.91;100.00;102004.44;7394516;19;20023;-60
2022/04/14 06:33:00;;;;;;;194.15;77.22;;;;;;;10.01;100.00;102005.97;7394163;19;20018;-61
2022/04/14 06:35:29;;;;;;;177.18;76.20;;;;;;;9.95;100.00;102001.72;7397428;19;20372;-60
2022/04/14 06:38:01;;;;;;;112.75;60.63;;;;;;;10.01;100.00;102012.03;7395938;19;20082;-59
2022/04/14 06:40:30;;;;;;;104.70;59.95;;;;;;;10.03;100.00;102009.41;7395849;19;20010;-56
2022/04/14 06:42:59;;;;;;;101.22;61.20;;;;;;;10.02;100.00;102013.78;7392974;19;20034;-59
2022/04/14 06:45:28;;;;;;;117.22;65.25;;;;;;;9.94;100.00;102022.72;7396069;19;20014;-57
2022/04/14 06:47:57;;;;;;;105.43;60.67;;;;;;;9.98;100.00;102019.97;7394545;19;20038;-59
2022/04/14 06:50:26;;;;;;;83.90;55.35;;;;;;;9.89;100.00;102019.34;7393595;19;20015;-59
2022/04/14 06:52:55;;;;;;;84.45;54.63;;;;;;;9.84;100.00;102020.31;7391618;19;20022;-59
2022/04/14 06:55:26;;;;;;;78.45;49.67;;;;;;;9.98;100.00;102027.84;7400275;19;20014;-60
2022/04/14 06:57:56;;;;;;;91.47;57.42;;;;;;;9.99;100.00;102031.34;7396174;19;20090;-58
2022/04/14 07:00:25;;;;;;;109.32;62.13;;;;;;;9.89;100.00;102022.81;7394765;19;20022;-59
2022/04/14 07:02:56;;;;;;;96.10;58.70;;;;;;;9.97;100.00;102020.91;7394348;19;20062;-57
2022/04/14 07:05:25;;;;;;;84.80;53.97;;;;;;;9.91;100.00;102023.63;7394412;19;20018;-57
2022/04/14 07:07:54;;;;;;;86.03;54.72;;;;;;;9.96;100.00;102021.78;7395480;19;20368;-58
2022/04/14 07:10:27;;;;;;;71.68;49.92;;;;;;;9.86;100.00;102015.88;7393196;19;20058;-60
2022/04/14 07:12:56;;;;;;;;;;;;;;;10.01;100.00;102019.91;7395026;19;20015;-60
2022/04/14 07:15:24;;;;;;;77.20;50.85;;;;;;;10.09;100.00;102019.75;7394036;19;19926;-60
2022/04/14 07:17:53;;;;;;;67.85;49.67;;;;;;;10.16;100.00;102026.56;7393688;19;20371;-60
2022/04/14 07:20:23;;;;;;;74.93;52.58;;;;;;;10.04;100.00;102021.59;7393511;19;20014;-60
2022/04/14 07:22:53;;;;;;;73.60;51.63;;;;;;;10.17;100.00;102007.34;7393946;19;20053;-61
2022/04/14 07:25:23;;;;;;;69.47;50.58;;;;;;;10.33;100.00;102013.06;7394583;19;20015;-63
2022/04/14 07:27:55;;;;;;;65.50;48.00;;;;;;;10.36;100.00;102020.88;7394104;19;20483;-62
2022/04/14 07:30:26;;;;;;;65.10;47.58;;;;;;;10.53;100.00;102020.47;7395222;19;20029;-62
2022/04/14 07:32:56;;;;;;;67.35;49.80;;;;;;;10.56;100.00;102025.66;7392985;19;20029;-64
2022/04/14 07:35:25;;;;;;;71.20;49.80;;;;;;;10.54;100.00;102018.72;7393042;19;20011;-62
2022/04/14 07:37:55;;;;;;;64.55;47.53;;;;;;;10.80;100.00;102019.81;7392709;19;20031;-62
2022/04/14 07:40:24;;;;;;;64.03;46.88;;;;;;;10.92;100.00;102019.50;7391415;19;20014;-61
2022/04/14 07:42:58;;;;;;;63.03;47.08;;;;;;;10.98;100.00;102028.97;7388977;19;20050;-62
2022/04/14 07:45:27;;;;;;;61.47;46.30;;;;;;;10.98;100.00;102029.81;7392926;19;20129;-61
2022/04/14 07:47:56;;;;;;;68.03;48.42;;;;;;;11.09;100.00;102037.41;7391957;19;20552;-61
2022/04/14 07:50:24;;;;;;;59.50;44.67;;;;;;;11.12;100.00;102036.44;7393745;19;20019;-58
2022/04/14 07:52:56;;;;;;;58.72;44.75;;;;;;;11.06;100.00;102042.72;7392065;19;20029;-60
2022/04/14 07:55:26;;;;;;;61.50;45.42;;;;;;;11.21;100.00;102033.59;7392874;19;20174;-57
2022/04/14 07:58:00;;;;;;;58.60;43.75;;;;;;;11.40;100.00;102036.56;7394336;19;20344;-59
2022/04/14 08:00:29;;;;;;;59.10;44.38;;;;;;;11.44;100.00;102038.19;7392625;19;20034;-58
2022/04/14 08:02:59;;;;;;;57.08;43.80;;;;;;;11.43;100.00;102034.72;7392900;19;20010;-59
2022/04/14 08:05:31;;;;;;;53.20;42.80;;;;;;;11.63;98.79;102035.03;7392567;19;20010;-60
2022/04/14 08:08:00;;;;;;;55.22;41.80;;;;;;;11.62;98.07;102035.94;7392135;19;20018;-60
2022/04/14 08:10:29;;;;;;;49.13;37.55;;;;;;;11.64;97.73;102037.63;7391864;19;20367;-59
2022/04/14 08:13:01;;;;;;;49.70;38.47;;;;;;;11.90;97.99;102038.63;7391285;19;20025;-60
2022/04/14 08:15:31;;;;;;;51.53;37.55;;;;;;;12.17;96.89;102034.31;7392564;19;20018;-59
2022/04/14 08:18:00;;;;;;;47.75;36.17;;;;;;;12.25;95.18;102034.06;7392100;19;20038;-59
2022/04/14 08:20:30;;;;;;;42.85;34.00;;;;;;;12.28;94.04;102029.56;7391122;19;20018;-60
2022/04/14 08:23:00;;;;;;;42.17;31.23;;;;;;;12.33;94.25;102042.56;7390987;19;20026;-59
2022/04/14 08:25:31;;;;;;;39.00;29.08;;;;;;;12.37;91.83;102041.56;7392125;19;20018;-60
2022/04/14 08:28:04;;;;;;;34.63;28.15;;;;;;;12.37;91.54;102038.94;7390834;19;20483;-63
2022/04/14 08:30:35;;;;;;;35.13;28.42;;;;;;;12.36;92.60;102041.63;7389608;19;20026;-61
2022/04/14 08:33:07;;;;;;;33.97;26.67;;;;;;;12.46;92.47;102043.91;7390056;19;20026;-63
2022/04/14 08:35:37;;;;;;;36.50;28.67;;;;;;;12.67;92.61;102046.72;7390660;19;20010;-62
2022/04/14 08:38:08;;;;;;;35.42;27.67;;;;;;;12.86;91.26;102051.38;7392258;19;20007;-58
2022/04/14 08:40:40;;;;;;;45.55;31.48;;;;;;;13.08;91.10;102046.22;7391203;19;20022;-57
2022/04/14 08:43:12;;;;;;;35.30;27.95;;;;;;;13.18;90.01;102047.63;7390497;19;20015;-58
2022/04/14 08:45:47;;;;;;;32.38;26.17;;;;;;;13.31;88.93;102041.00;7391104;19;20922;-60
2022/04/14 08:48:17;;;;;;;33.20;27.10;;;;;;;13.35;89.63;102040.91;7394342;19;20018;-59
2022/04/14 08:50:46;;;;;;;33.17;26.33;;;;;;;13.40;89.49;102042.47;7391618;19;20018;-59
2022/04/14 08:53:16;;;;;;;34.45;27.40;;;;;;;13.53;89.01;102037.63;7392384;19;20011;-61
2022/04/14 08:55:45;;;;;;;30.60;25.23;;;;;;;13.60;88.41;102036.47;7390887;19;20011;-55
2022/04/14 08:58:19;;;;;;;32.55;25.65;;;;;;;13.67;88.44;102037.94;7392188;19;20010;-60
2022/04/14 09:00:51;;;;;;;28.55;23.85;;;;;;;13.75;86.37;102039.44;7392098;19;20160;-59
2022/04/14 09:03:21;;;;;;;29.42;22.33;;;;;;;13.79;85.47;102043.69;7391375;19;20018;-58
2022/04/14 09:05:51;;;;;;;27.63;23.52;;;;;;;13.98;85.65;102038.53;7391782;19;20094;-60
2022/04/14 09:08:19;;;;;;;30.13;24.17;;;;;;;14.31;86.02;102038.13;7390790;19;20011;-61
2022/04/14 09:10:48;;;;;;;24.95;21.73;;;;;;;14.36;83.47;102034.38;7391196;19;20014;-60
2022/04/14 09:13:20;;;;;;;24.45;20.27;;;;;;;14.35;81.80;102019.47;7389567;19;20325;-59
2022/04/14 09:15:49;;;;;;;29.50;20.42;;;;;;;14.62;82.17;102029.00;7390781;19;20028;-60
2022/04/14 09:18:19;;;;;;;26.15;18.80;;;;;;;14.53;80.32;102027.56;7390807;19;20039;-60
2022/04/14 09:20:48;;;;;;;24.55;19.25;;;;;;;14.87;80.64;102028.78;7389885;19;20024;-56
2022/04/14 09:23:21;;;;;;;22.73;18.20;;;;;;;14.90;80.05;102026.03;7390921;19;20025;-58
2022/04/14 09:25:51;;;;;;;26.00;18.60;;;;;;;15.19;79.66;102026.56;7391862;19;20463;-61
2022/04/14 09:28:23;;;;;;;26.88;17.98;;;;;;;15.22;78.43;102024.63;7391234;19;20015;-58
2022/04/14 09:31:03;;;;;;;24.83;18.10;;;;;;;15.19;77.42;102031.84;7390431;19;20006;-60
2022/04/14 09:33:35;;;;;;;22.83;17.42;;;;;;;15.18;78.76;102020.38;7389077;19;20640;-55
2022/04/14 09:36:09;;;;;;;23.00;17.88;;;;;;;15.38;78.57;102016.84;7390314;19;20018;-58
2022/04/14 09:38:58;;;;;;;23.50;17.58;;;;;;;15.64;77.42;102016.59;7390628;19;20019;-60
2022/04/14 09:41:33;;;;;;;21.98;16.70;;;;;;;15.62;75.22;102010.50;7390251;19;20019;-60
2022/04/14 09:44:06;;;;;;;21.40;14.55;;;;;;;15.62;74.50;102007.88;7389579;19;20048;-60
2022/04/14 09:46:35;;;;;;;22.02;13.55;;;;;;;15.68;72.19;102008.44;7389615;19;20021;-60
2022/04/14 09:49:07;;;;;;;16.50;11.57;;;;;;;15.63;69.58;102012.25;7389612;19;20006;-60
2022/04/14 09:51:37;;;;;;;16.33;12.23;;;;;;;15.38;70.74;102006.28;7384934;19;20085;-59
2022/04/14 09:54:11;;;;;;;22.48;13.82;;;;;;;15.38;73.69;102008.09;7383449;19;20479;-59
2022/04/14 09:56:46;;;;;;;18.35;13.55;;;;;;;15.50;71.51;102009.31;7387935;19;20359;-60
2022/04/14 09:59:20;;;;;;;23.60;14.18;;;;;;;15.55;72.75;102005.53;7388462;19;20019;-57
2022/04/14 10:01:50;;;;;;;18.85;12.50;;;;;;;15.52;69.95;102003.03;7391460;19;20037;-61
2022/04/14 10:04:33;;;;;;;19.45;12.40;;;;;;;16.00;70.19;102016.66;7392678;19;20022;-58
2022/04/14 10:07:07;;;;;;;14.57;10.98;;;;;;;15.97;69.71;102005.41;7394371;19;20124;-60
2022/04/14 10:09:38;;;;;;;17.70;12.85;;;;;;;16.08;71.74;102011.88;7391995;19;20035;-60
2022/04/14 10:12:29;;;;;;;19.25;14.23;;;;;;;15.99;70.15;102012.31;7390256;19;20026;-57
2022/04/14 10:15:07;;;;;;;19.48;14.05;;;;;;;15.93;71.78;102020.53;7393431;19;20022;-59
2022/04/14 10:17:39;;;;;;;20.08;13.90;;;;;;;15.85;69.72;102025.34;7395177;19;20029;-59
2022/04/14 10:20:10;;;;;;;15.68;12.70;;;;;;;16.06;69.50;102023.44;7394500;19;20014;-59
2022/04/14 10:22:40;;;;;;;18.95;12.48;;;;;;;16.34;68.34;102022.13;7393489;19;20014;-60
2022/04/14 10:25:12;;;;;;;16.02;11.70;;;;;;;16.39;68.72;102026.25;7395977;19;20373;-59
2022/04/14 10:27:42;;;;;;;14.63;11.60;;;;;;;16.41;67.11;102021.72;7395248;19;20040;-59
2022/04/14 10:30:19;;;;;;;17.20;11.57;;;;;;;16.32;67.68;102026.59;7395483;19;20057;-59
2022/04/14 10:32:49;;;;;;;18.13;12.20;;;;;;;16.15;66.96;102032.75;7397092;19;20022;-59
2022/04/14 10:35:18;;;;;;;16.75;12.30;;;;;;;16.29;67.49;102022.34;7397769;19;20010;-57
2022/04/14 10:37:51;;;;;;;16.80;11.50;;;;;;;16.53;66.72;102020.25;7395010;19;20022;-59
2022/04/14 10:40:20;;;;;;;16.85;11.95;;;;;;;16.62;66.69;102016.31;7398843;19;20014;-60
2022/04/14 10:42:56;;;;;;;20.73;11.75;;;;;;;16.64;66.53;102008.28;7394401;19;20130;-59
2022/04/14 10:45:27;;;;;;;17.67;11.52;;;;;;;16.75;66.89;102005.97;7399522;19;20018;-59
2022/04/14 10:48:01;;;;;;;20.38;12.70;;;;;;;17.00;66.91;102010.00;7394037;19;20015;-60
2022/04/14 10:50:32;;;;;;;17.55;12.10;;;;;;;17.48;65.26;102018.94;7395565;19;20018;-62
2022/04/14 10:53:06;;;;;;;16.25;11.90;;;;;;;17.51;63.69;102026.69;7392008;19;20025;-61
2022/04/14 10:55:40;;;;;;;19.10;13.23;;;;;;;17.61;63.91;102019.09;7392619;19;20021;-62
2022/04/14 10:58:30;;;;;;;17.80;11.88;;;;;;;17.35;62.75;102016.09;7394457;19;20018;-61
2022/04/14 11:01:01;;;;;;;16.02;11.18;;;;;;;17.23;64.55;102020.22;7393797;19;20101;-61
2022/04/14 11:03:48;;;;;;;18.58;11.60;;;;;;;17.41;63.06;102028.16;7393412;19;20241;-62
2022/04/14 11:06:51;;;;;;;16.30;10.52;;;;;;;17.62;63.71;102024.31;7394179;19;20014;-61
2022/04/14 11:09:48;;;;;;;17.33;11.98;;;;;;;17.73;63.54;102018.41;7392641;19;20026;-60
2022/04/14 11:12:19;;;;;;;13.02;10.43;;;;;;;17.85;60.79;102023.97;7393235;19;20017;-60
2022/04/14 11:14:53;;;;;;;15.70;10.63;;;;;;;17.67;61.85;102008.16;7394256;19;20015;-59